Flight Track Log - Related Links

Times and Time Zones

All times are in EDT time to prevent confusion due to time zone crossing. See the AFR3886 flight status page for this flight to view local times or setup timezone preferences in your user account.

Time Position Orientation Groundspeed Altitude Reporting Facility
EDT Latitude Longitude Course Direction KTS MPH feet Rate Location/Type
Wed 08:45:18 AM 48.9951 2.5432 265° West 165 190 1,400  Level FlightAware ADS-B
Wed 08:45:42 AM 48.9937 2.5158 266° West 158 182 2,400 2,195 Climbing FlightAware ADS-B
Wed 08:45:59 AM 48.9930 2.4973 267° West 157 181 2,900 1,625 Climbing FlightAware ADS-B
Wed 08:46:30 AM 48.9914 2.4625 266° West 162 186 3,700 1,277 Climbing FlightAware ADS-B
Wed 08:46:46 AM 48.9900 2.4430 264° West 178 205 3,900 960 Climbing FlightAware ADS-B
Wed 08:46:55 AM 48.9894 2.4306 266° West 194 223 4,100 1,105 Climbing FlightAware ADS-B
Wed 08:47:24 AM 48.9872 2.3875 266° West 225 259 4,600 1,565 Climbing FlightAware ADS-B
Wed 08:47:41 AM 48.9857 2.3604 265° West 229 264 5,300 2,500 Climbing FlightAware ADS-B
Wed 08:47:48 AM 48.9860 2.3484 272° West 233 268 5,600 2,625 Climbing FlightAware ADS-B
Wed 08:47:57 AM 48.9887 2.3360 288° West 236 272 6,000 2,769 Climbing FlightAware ADS-B
Wed 08:48:01 AM 48.9912 2.3297 301° West 239 275 6,200 2,769 Climbing FlightAware ADS-B
Wed 08:48:10 AM 48.9979 2.3181 312° West 245 282 6,600 2,000 Climbing FlightAware ADS-B
Wed 08:48:13 AM 49.0006 2.3145 319° Northwest 251 289 6,600 857 Level FlightAware ADS-B
Wed 08:48:17 AM 49.0048 2.3100 325° Northwest 257 296 6,700 1,800 Climbing FlightAware ADS-B
Wed 08:48:23 AM 49.0108 2.3053 333° Northwest 266 306 6,900 1,636 Climbing FlightAware ADS-B
Wed 08:48:28 AM 49.0160 2.3029 343° North 274 315 7,000 2,000 Climbing FlightAware ADS-B
Wed 08:48:32 AM 49.0223 2.3014 351° North 281 323 7,200 2,667 Climbing FlightAware ADS-B
Wed 08:48:37 AM 49.0290 2.3014 360° North 285 328 7,400 2,000 Climbing FlightAware ADS-B
Wed 08:48:41 AM 49.0338 2.3026 10° North 288 331 7,500 2,250 Climbing FlightAware ADS-B
Wed 08:48:45 AM 49.0388 2.3048 16° North 290 334 7,700 2,400 Climbing FlightAware ADS-B
Wed 08:48:51 AM 49.0462 2.3100 25° Northeast 293 337 7,900 1,714 Climbing FlightAware ADS-B
Wed 08:48:59 AM 49.0550 2.3204 38° Northeast 299 344 8,100 2,000 Climbing FlightAware ADS-B
Wed 08:49:03 AM 49.0586 2.3267 49° Northeast 301 346 8,300 2,727 Climbing FlightAware ADS-B
Wed 08:49:10 AM 49.0646 2.3396 55° Northeast 301 346 8,600 2,571 Climbing FlightAware ADS-B
Wed 08:49:17 AM 49.0695 2.3526 60° Northeast 302 348 8,900 2,000 Climbing FlightAware ADS-B
Wed 08:49:22 AM 49.0723 2.3611 63° Northeast 301 346 9,000 2,000 Climbing FlightAware ADS-B
Wed 08:49:26 AM 49.0746 2.3695 67° East 302 348 9,200 2,250 Climbing FlightAware ADS-B
Wed 08:49:46 AM 49.0848 2.4082 68° East 308 354 9,900 1,765 Climbing FlightAware ADS-B
Wed 08:50:17 AM 49.1014 2.4722 68° East 323 372 10,700 1,967 Climbing FlightAware ADS-B
Wed 08:50:47 AM 49.1185 2.5363 68° East 328 377 11,900 2,361 Climbing FlightAware ADS-B
Wed 08:51:18 AM 49.1366 2.6040 68° East 328 377 13,100 2,264 Climbing FlightAware ADS-B
Wed 08:51:40 AM 49.1480 2.6478 68° East 326 375 13,900 2,160 Climbing FlightAware ADS-B
Wed 08:51:43 AM 49.1501 2.6581 73° East 327 376 14,000 1,714 Climbing FlightAware ADS-B
Wed 08:51:47 AM 49.1511 2.6661 79° East 326 375 14,100 1,714 Climbing FlightAware ADS-B
Wed 08:51:50 AM 49.1515 2.6731 85° East 326 375 14,200 1,000 Climbing FlightAware ADS-B
Wed 08:51:53 AM 49.1515 2.6802 90° East 325 374 14,200 750 Level FlightAware ADS-B
Wed 08:51:58 AM 49.1507 2.6909 96° East 324 373 14,300 1,200 Climbing FlightAware ADS-B
Wed 08:52:28 AM 49.1355 2.7537 110° East 328 377 14,900 968 Climbing FlightAware ADS-B
Wed 08:53:00 AM 49.1181 2.8275 110° East 358 412 15,300 774 Climbing FlightAware ADS-B
Wed 08:53:30 AM 49.1007 2.9032 109° East 381 438 15,700 783 Climbing FlightAware ADS-B
Wed 08:54:09 AM 49.0771 3.0056 109° East 404 465 16,200 1,215 Climbing FlightAware ADS-B
Wed 08:54:49 AM 49.0516 3.1157 109° East 415 478 17,300 1,750 Climbing FlightAware ADS-B
Wed 08:55:21 AM 49.0310 3.2041 110° East 417 480 18,300 1,645 Climbing FlightAware ADS-B
Wed 08:55:51 AM 49.0111 3.2888 110° East 424 488 19,000 1,429 Climbing FlightAware ADS-B
Wed 08:56:24 AM 48.9893 3.3812 110° East 429 494 19,800 1,385 Climbing FlightAware ADS-B
Wed 08:56:56 AM 48.9674 3.4736 110° East 437 503 20,500 1,432 Climbing FlightAware ADS-B
Wed 08:57:52 AM 48.9310 3.6260 110° East 436 502 21,900 1,307 Climbing FlightAware ADS-B
Wed 08:58:37 AM 48.9000 3.7620 109° East 448 516 22,700 1,059 Climbing FlightAware ADS-B
Wed 08:59:17 AM 48.8706 3.8873 110° East 456 525 23,400 1,029 Climbing FlightAware ADS-B
Wed 08:59:47 AM 48.8492 3.9783 110° East 463 533 23,900 900 Climbing FlightAware ADS-B
Wed 09:00:17 AM 48.8274 4.0708 110° East 472 543 24,300 689 Climbing FlightAware ADS-B
Wed 09:00:48 AM 48.8048 4.1661 110° East 479 551 24,600 1,065 Climbing FlightAware ADS-B
Wed 09:01:19 AM 48.7816 4.2635 110° East 476 548 25,400 1,143 Climbing FlightAware ADS-B
Wed 09:01:51 AM 48.7570 4.3663 110° East 486 559 25,800 677 Climbing FlightAware ADS-B
Wed 09:02:21 AM 48.7339 4.4626 110° East 492 566 26,100 762 Climbing FlightAware ADS-B
Wed 09:02:54 AM 48.7081 4.5692 110° East 498 573 26,600 952 Climbing FlightAware ADS-B
Wed 09:03:24 AM 48.6845 4.6670 110° East 501 577 27,100 900 Climbing FlightAware ADS-B
Wed 09:03:54 AM 48.6600 4.7676 110° East 504 580 27,500 800 Climbing FlightAware ADS-B
Wed 09:04:24 AM 48.6357 4.8674 110° East 508 585 27,900 984 Climbing FlightAware ADS-B
Wed 09:04:55 AM 48.6105 4.9701 110° East 507 583 28,500 1,364 Climbing FlightAware ADS-B
Wed 09:05:30 AM 48.5822 5.0847 110° East 502 578 29,400 1,286 Climbing FlightAware ADS-B
Wed 09:06:05 AM 48.5542 5.1976 110° East 502 578 30,000 1,059 Climbing FlightAware ADS-B
Wed 09:07:12 AM 48.5020 5.4090 110° East 498 573 31,200 1,071 Climbing FlightAware ADS-B
Wed 09:07:57 AM 48.4650 5.5550 111° Southeast 491 565 32,000 988 Climbing FlightAware ADS-B
Wed 09:08:37 AM 48.4350 5.6740 111° Southeast 489 563 32,600 600 Climbing FlightAware ADS-B
Wed 09:09:17 AM 48.4020 5.8010 111° Southeast 495 570 32,800 282 Climbing FlightAware ADS-B
Wed 09:10:02 AM 48.3630 5.9530 111° Southeast 502 578 33,000 141 Climbing FlightAware ADS-B
Wed 09:10:42 AM 48.3320 6.0740 111° Southeast 498 573 33,000  Level FlightAware ADS-B
Wed 09:11:27 AM 48.2920 6.2270 111° Southeast 498 573 33,000  Level FlightAware ADS-B
Wed 09:12:07 AM 48.2580 6.3590 111° Southeast 498 573 33,000  Level FlightAware ADS-B
Wed 09:12:47 AM 48.2250 6.4870 111° Southeast 499 574 33,000  Level FlightAware ADS-B
Wed 09:13:32 AM 48.1900 6.6190 112° Southeast 500 575 33,000  Level FlightAware ADS-B
Wed 09:14:12 AM 48.1560 6.7470 112° Southeast 501 577 33,000  Level FlightAware ADS-B
Wed 09:14:52 AM 48.1210 6.8750 112° Southeast 500 575 33,000  Level FlightAware ADS-B
Wed 09:15:37 AM 48.0780 7.0350 112° Southeast 501 577 33,000  Level FlightAware ADS-B
Wed 09:16:17 AM 48.0450 7.1590 112° Southeast 500 575 33,000  Level FlightAware ADS-B
Wed 09:17:02 AM 48.0060 7.3010 112° Southeast 498 573 33,000  Level FlightAware ADS-B
Wed 09:18:12 AM 47.9500 7.5080 112° Southeast 494 568 33,000  Level FlightAware ADS-B
Wed 09:18:52 AM 47.9120 7.6440 113° Southeast 495 570 33,000  Level FlightAware ADS-B
Wed 09:19:37 AM 47.8730 7.7840 113° Southeast 494 568 33,000  Level FlightAware ADS-B
Wed 09:20:17 AM 47.8380 7.9100 112° Southeast 498 573 33,000  Level FlightAware ADS-B
Wed 09:20:52 AM 47.8100 8.0130 112° Southeast 497 572 33,000  Level FlightAware ADS-B
Wed 09:21:27 AM 47.7790 8.1230 113° Southeast 497 572 33,000  Level FlightAware ADS-B
Wed 09:22:02 AM 47.7470 8.2340 113° Southeast 495 570 33,000  Level FlightAware ADS-B
Wed 09:23:02 AM 47.6940 8.4190 113° Southeast 496 571 33,000  Level FlightAware ADS-B
Wed 09:23:42 AM 47.6550 8.5530 113° Southeast 495 570 33,000  Level FlightAware ADS-B
Wed 09:24:22 AM 47.6180 8.6770 114° Southeast 496 571 33,000  Level FlightAware ADS-B
Wed 09:25:12 AM 47.5750 8.8300 113° Southeast 496 571 33,000  Level FlightAware ADS-B
Wed 09:25:47 AM 47.5580 8.9330 104° East 495 570 33,000  Level FlightAware ADS-B
Wed 09:26:32 AM 47.5330 9.0840 104° East 493 567 33,000  Level FlightAware ADS-B
Wed 09:27:17 AM 47.5060 9.2420 104° East 490 564 33,000  Level FlightAware ADS-B
Wed 09:27:57 AM 47.4840 9.3730 104° East 490 564 33,000  Level FlightAware ADS-B
Wed 09:28:42 AM 47.4590 9.5200 104° East 490 564 33,000  Level FlightAware ADS-B
Wed 09:29:22 AM 47.4370 9.6450 105° East 490 564 33,000  Level FlightAware ADS-B
Wed 09:30:02 AM 47.4150 9.7760 104° East 489 563 33,000  Level FlightAware ADS-B
Wed 09:30:47 AM 47.3900 9.9200 104° East 488 562 33,000  Level FlightAware ADS-B
Wed 09:31:32 AM 47.3640 10.0620 105° East 489 563 33,000  Level FlightAware ADS-B
Wed 09:32:02 AM 47.3280 10.1550 120° Southeast 491 565 33,000  Level FlightAware ADS-B
Wed 09:32:57 AM 47.2500 10.3030 128° Southeast 489 563 33,000  Level FlightAware ADS-B
Wed 09:33:37 AM 47.1950 10.4100 127° Southeast 486 559 33,000  Level FlightAware ADS-B
Wed 09:34:17 AM 47.1430 10.5110 127° Southeast 485 558 33,000  Level FlightAware ADS-B
Wed 09:35:02 AM 47.0790 10.6350 127° Southeast 483 556 33,000  Level FlightAware ADS-B
Wed 09:35:37 AM 47.0310 10.7160 131° Southeast 490 564 33,000  Level FlightAware ADS-B
Wed 09:37:42 AM 46.8000 10.9760 142° Southeast 490 564 33,000  Level FlightAware ADS-B
Wed 09:39:02 AM 46.6550 11.1260 145° Southeast 489 563 33,000  Level FlightAware ADS-B
Wed 09:39:37 AM 46.5920 11.1910 145° Southeast 489 563 33,000  Level FlightAware ADS-B
Wed 09:41:42 AM 46.3450 11.4060 149° Southeast 481 554 33,000  Level FlightAware ADS-B
Wed 09:43:52 AM 46.0800 11.5910 154° Southeast 492 566 33,000  Level FlightAware ADS-B
Wed 09:44:32 AM 46.0000 11.6480 154° Southeast 494 568 33,000  Level FlightAware ADS-B
Wed 09:45:32 AM 45.8830 11.7360 152° Southeast 497 572 33,000  Level FlightAware ADS-B
Wed 09:46:07 AM 45.8120 11.7920 151° Southeast 499 574 33,000  Level FlightAware ADS-B
Wed 09:46:57 AM 45.7130 11.8700 151° Southeast 499 574 33,000  Level FlightAware ADS-B
Wed 09:47:37 AM 45.6290 11.9360 151° Southeast 499 574 33,000  Level FlightAware ADS-B
Wed 09:48:22 AM 45.5390 12.0060 151° Southeast 500 575 33,000  Level FlightAware ADS-B
Wed 09:49:02 AM 45.4620 12.0660 151° Southeast 501 577 33,000  Level FlightAware ADS-B
Wed 09:49:42 AM 45.3790 12.1310 151° Southeast 500 575 33,000  Level FlightAware ADS-B
Wed 09:50:17 AM 45.3050 12.1880 152° Southeast 499 574 33,000  Level FlightAware ADS-B
Wed 09:51:07 AM 45.2090 12.2620 151° Southeast 499 574 33,000  Level FlightAware ADS-B
Wed 09:51:42 AM 45.1480 12.3080 152° Southeast 499 574 33,000  Level FlightAware ADS-B
Wed 09:52:32 AM 45.0320 12.3970 152° Southeast 498 573 33,000  Level FlightAware ADS-B
Wed 09:53:12 AM 44.9540 12.4550 152° Southeast 499 574 33,000  Level FlightAware ADS-B
Wed 09:53:57 AM 44.8610 12.5240 152° Southeast 502 578 33,000  Level FlightAware ADS-B
Wed 09:54:27 AM 44.8590 12.5250 160° South 503 579 33,000  Level FlightAware ADS-B
Wed 09:55:32 AM 44.8120 12.5610 151° Southeast 504 580 33,000  Level FlightAware ADS-B
Wed 09:56:12 AM 44.7420 12.6130 152° Southeast 504 580 33,000  Level FlightAware ADS-B
Wed 09:57:17 AM 44.4420 12.8320 152° Southeast 509 586 33,000  Level FlightAware ADS-B
Wed 09:58:07 AM 44.3380 12.9080 152° Southeast 509 586 33,000  Level FlightAware ADS-B
Wed 09:58:52 AM 44.2470 12.9740 153° Southeast 509 586 33,000  Level FlightAware ADS-B
Wed 09:59:32 AM 44.1610 13.0360 153° Southeast 509 586 33,000  Level FlightAware ADS-B
Wed 10:00:12 AM 44.0770 13.0960 153° Southeast 509 586 33,000  Level FlightAware ADS-B
Wed 10:00:57 AM 43.9820 13.1650 152° Southeast 509 586 33,000  Level FlightAware ADS-B
Wed 10:01:37 AM 43.9080 13.2180 153° Southeast 508 585 33,000  Level FlightAware ADS-B
Wed 10:02:17 AM 43.8150 13.2850 153° Southeast 504 580 33,000  Level FlightAware ADS-B
Wed 10:03:02 AM 43.7250 13.3490 153° Southeast 493 567 33,000  Level FlightAware ADS-B
Wed 10:03:42 AM 43.6420 13.4070 153° Southeast 492 566 33,000  Level FlightAware ADS-B
Wed 10:04:27 AM 43.5500 13.4720 153° Southeast 490 564 33,000  Level FlightAware ADS-B
Wed 10:05:07 AM 43.4700 13.5290 153° Southeast 488 562 33,000  Level FlightAware ADS-B
Wed 10:05:47 AM 43.3850 13.5880 153° Southeast 486 559 33,000  Level FlightAware ADS-B
Wed 10:06:32 AM 43.3010 13.6470 153° Southeast 485 558 33,000  Level FlightAware ADS-B
Wed 10:07:12 AM 43.2140 13.7050 154° Southeast 492 566 33,000  Level FlightAware ADS-B
Wed 10:07:47 AM 43.1400 13.7540 154° Southeast 486 559 33,000  Level FlightAware ADS-B
Wed 10:08:07 AM 43.1050 13.7920 142° Southeast 486 559 33,000  Level FlightAware ADS-B
Wed 10:08:52 AM 43.0340 13.8960 133° Southeast 488 562 33,000  Level FlightAware ADS-B
Wed 10:09:32 AM 42.9720 13.9860 133° Southeast 488 562 33,000  Level FlightAware ADS-B
Wed 10:10:12 AM 42.9130 14.0710 133° Southeast 480 552 33,000  Level FlightAware ADS-B
Wed 10:10:57 AM 42.8440 14.1710 133° Southeast 483 556 33,000  Level FlightAware ADS-B
Wed 10:11:32 AM 42.7940 14.2430 133° Southeast 481 554 33,000  Level FlightAware ADS-B
Wed 10:12:22 AM 42.7150 14.3590 133° Southeast 481 554 33,000  Level FlightAware ADS-B
Wed 10:13:02 AM 42.6560 14.4470 132° Southeast 479 551 33,000  Level FlightAware ADS-B
Wed 10:13:42 AM 42.5900 14.5430 133° Southeast 486 559 33,000 71 Level FlightAware ADS-B
Wed 10:14:27 AM 42.5280 14.6330 133° Southeast 479 551 33,100  Climbing FlightAware ADS-B
Wed 10:15:07 AM 42.4650 14.7250 133° Southeast 480 552 33,000 -71 Descending FlightAware ADS-B
Wed 10:15:52 AM 42.3930 14.8290 133° Southeast 481 554 33,000  Level FlightAware ADS-B
Wed 10:16:32 AM 42.3310 14.9180 133° Southeast 480 552 33,000  Level FlightAware ADS-B
Wed 10:17:12 AM 42.2680 15.0090 133° Southeast 483 556 33,000  Level FlightAware ADS-B
Wed 10:17:57 AM 42.1980 15.1090 133° Southeast 480 552 33,000  Level FlightAware ADS-B
Wed 10:18:42 AM 42.1310 15.2060 133° Southeast 478 550 33,000  Level FlightAware ADS-B
Wed 10:19:22 AM 42.0710 15.2910 134° Southeast 476 548 33,000  Level FlightAware ADS-B
Wed 10:20:02 AM 42.0110 15.3770 133° Southeast 475 547 33,000 212 Level FlightAware ADS-B
Wed 10:20:47 AM 41.9410 15.4760 134° Southeast 474 545 33,300 635 Climbing FlightAware ADS-B
Wed 10:21:27 AM 41.8810 15.5600 134° Southeast 473 544 33,900 900 Climbing FlightAware ADS-B
Wed 10:22:07 AM 41.8210 15.6460 133° Southeast 469 540 34,500 635 Climbing FlightAware ADS-B
Wed 10:22:52 AM 41.7560 15.7360 134° Southeast 473 544 34,800 353 Climbing FlightAware ADS-B
Wed 10:23:32 AM 41.6940 15.8220 134° Southeast 476 548 35,000 141 Climbing FlightAware ADS-B
Wed 10:24:17 AM 41.6240 15.9210 133° Southeast 467 537 35,000  Level FlightAware ADS-B
Wed 10:24:57 AM 41.5660 16.0020 134° Southeast 463 533 35,000  Level FlightAware ADS-B
Wed 10:25:37 AM 41.5060 16.0850 134° Southeast 468 539 35,000  Level FlightAware ADS-B
Wed 10:26:22 AM 41.4410 16.1740 134° Southeast 470 541 35,000  Level FlightAware ADS-B
Wed 10:27:02 AM 41.3800 16.2590 134° Southeast 470 541 35,000 71 Level FlightAware ADS-B
Wed 10:27:47 AM 41.3100 16.3550 134° Southeast 466 536 35,100  Climbing FlightAware ADS-B
Wed 10:28:27 AM 41.2510 16.4360 134° Southeast 462 532 35,000 -75 Descending FlightAware ADS-B
Wed 10:29:07 AM 41.1920 16.5170 134° Southeast 458 527 35,000  Level FlightAware ADS-B
Wed 10:29:52 AM 41.1270 16.6060 134° Southeast 457 526 35,000  Level FlightAware ADS-B
Wed 10:30:32 AM 41.0670 16.6860 135° Southeast 457 526 35,000  Level FlightAware ADS-B
Wed 10:31:12 AM 41.0090 16.7650 134° Southeast 457 526 35,000  Level FlightAware ADS-B
Wed 10:31:57 AM 40.9410 16.8580 134° Southeast 461 531 35,000  Level FlightAware ADS-B
Wed 10:32:37 AM 40.8800 16.9390 135° Southeast 460 529 35,000  Level FlightAware ADS-B
Wed 10:33:22 AM 40.8160 17.0250 135° Southeast 463 533 35,000  Level FlightAware ADS-B
Wed 10:34:02 AM 40.7550 17.1070 134° Southeast 466 536 35,000  Level FlightAware ADS-B
Wed 10:34:47 AM 40.6850 17.2010 134° Southeast 466 536 35,000  Level FlightAware ADS-B
Wed 10:35:27 AM 40.6260 17.2780 135° Southeast 465 535 35,000  Level FlightAware ADS-B
Wed 10:36:07 AM 40.5650 17.3600 134° Southeast 462 532 35,000  Level FlightAware ADS-B
Wed 10:36:52 AM 40.4980 17.4480 135° Southeast 459 528 35,000  Level FlightAware ADS-B
Wed 10:37:32 AM 40.4390 17.5260 135° Southeast 458 527 35,000  Level FlightAware ADS-B
Wed 10:38:12 AM 40.3790 17.6060 135° Southeast 457 526 35,000  Level FlightAware ADS-B
Wed 10:38:57 AM 40.3100 17.6970 135° Southeast 456 525 35,000  Level FlightAware ADS-B
Wed 10:39:37 AM 40.2510 17.7730 135° Southeast 454 522 35,000  Level FlightAware ADS-B
Wed 10:40:22 AM 40.1860 17.8590 135° Southeast 454 522 35,000  Level FlightAware ADS-B
Wed 10:41:02 AM 40.1260 17.9370 135° Southeast 453 521 35,000  Level FlightAware ADS-B
Wed 10:41:42 AM 40.0670 18.0130 135° Southeast 451 519 35,000  Level FlightAware ADS-B
Wed 10:42:27 AM 39.9990 18.1010 135° Southeast 451 519 35,000  Level FlightAware ADS-B
Wed 10:43:12 AM 39.9330 18.1860 135° Southeast 451 519 35,000  Level FlightAware ADS-B
Wed 10:43:52 AM 39.8750 18.2610 135° Southeast 450 518 35,000  Level FlightAware ADS-B
Wed 10:44:37 AM 39.8060 18.3490 136° Southeast 450 518 35,000  Level FlightAware ADS-B
Wed 10:45:17 AM 39.7550 18.4150 135° Southeast 449 517 35,000  Level FlightAware ADS-B
Wed 10:47:00 AM 39.6776 18.6403 114° Southeast  Level Estimated
Wed 10:47:07 AM 39.5960 18.6180 114° Southeast 453 521 35,000  Level FlightAware ADS-B
Wed 10:47:47 AM 39.5400 18.6980 132° Southeast 452 520 35,000  Level FlightAware ADS-B
Wed 10:48:27 AM 39.4920 18.7840 126° Southeast 453 521 35,000  Level FlightAware ADS-B
Wed 10:49:07 AM 39.4450 18.8670 126° Southeast 453 521 35,000  Level FlightAware ADS-B
Wed 10:49:57 AM 39.3880 18.9700 126° Southeast 454 522 35,000  Level FlightAware ADS-B
Wed 10:50:32 AM 39.3390 19.0570 126° Southeast 454 522 35,000  Level FlightAware ADS-B
Wed 10:51:22 AM 39.2840 19.1560 126° Southeast 451 519 35,000  Level FlightAware ADS-B
Wed 10:51:52 AM 39.2450 19.2250 126° Southeast 449 517 35,000  Level FlightAware ADS-B
Wed 10:52:57 AM 39.1730 19.3530 126° Southeast 446 513 35,000  Level FlightAware ADS-B
Wed 10:53:37 AM 39.1180 19.4500 126° Southeast 443 510 35,000  Level FlightAware ADS-B
Wed 10:54:17 AM 39.0760 19.5240 126° Southeast 443 510 35,000  Level FlightAware ADS-B
Wed 10:54:57 AM 39.0270 19.6100 126° Southeast 445 512 35,000  Level FlightAware ADS-B
Wed 10:55:42 AM 38.9730 19.7040 126° Southeast 447 514 35,000  Level FlightAware ADS-B
Wed 10:56:22 AM 38.9240 19.7900 126° Southeast 447 514 35,000  Level FlightAware ADS-B
Wed 10:57:02 AM 38.8730 19.8780 127° Southeast 447 514 35,000  Level FlightAware ADS-B
Wed 10:57:52 AM 38.8070 19.9920 127° Southeast 448 516 35,000  Level FlightAware ADS-B
Wed 10:58:32 AM 38.7630 20.0700 126° Southeast 449 517 35,000  Level FlightAware ADS-B
Wed 10:59:12 AM 38.7060 20.1680 127° Southeast 451 519 35,000  Level FlightAware ADS-B
Wed 10:59:52 AM 38.6630 20.2420 127° Southeast 451 519 35,000  Level FlightAware ADS-B
Wed 11:00:37 AM 38.6100 20.3350 126° Southeast 451 519 35,000  Level FlightAware ADS-B
Wed 11:01:22 AM 38.5340 20.4630 127° Southeast 445 512 35,000  Level FlightAware ADS-B
Wed 11:02:12 AM 38.4710 20.5710 127° Southeast 443 510 35,000  Level FlightAware ADS-B
Wed 11:03:17 AM 38.4450 20.6160 126° Southeast 443 510 35,000  Level FlightAware ADS-B
Wed 11:03:57 AM 38.4040 20.6880 126° Southeast 443 510 35,000  Level FlightAware ADS-B
Wed 11:04:37 AM 38.3630 20.7600 126° Southeast 443 510 35,000  Level FlightAware ADS-B
Wed 11:05:12 AM 38.2500 20.9460 128° Southeast 447 514 35,000 71 Level FlightAware ADS-B
Wed 11:06:02 AM 38.1980 21.0330 127° Southeast 447 514 35,100  Climbing FlightAware ADS-B
Wed 11:06:47 AM 38.1380 21.1320 128° Southeast 446 513 35,000 -75 Descending FlightAware ADS-B
Wed 11:07:22 AM 38.0970 21.2020 127° Southeast 446 513 35,000  Level FlightAware ADS-B
Wed 11:08:07 AM 38.0310 21.3110 128° Southeast 451 519 35,000  Level FlightAware ADS-B
Wed 11:08:52 AM 37.9740 21.4060 127° Southeast 450 518 35,000  Level FlightAware ADS-B
Wed 11:09:32 AM 37.9240 21.4900 127° Southeast 449 517 35,000  Level FlightAware ADS-B
Wed 11:10:17 AM 37.8690 21.5810 127° Southeast 446 513 35,000  Level FlightAware ADS-B
Wed 11:10:57 AM 37.8190 21.6630 128° Southeast 443 510 35,000  Level FlightAware ADS-B
Wed 11:11:37 AM 37.7680 21.7460 128° Southeast 441 507 35,000  Level FlightAware ADS-B
Wed 11:12:17 AM 37.7240 21.8200 127° Southeast 442 509 35,000  Level FlightAware ADS-B
Wed 11:12:57 AM 37.6820 21.8900 127° Southeast 442 509 35,000  Level FlightAware ADS-B
Wed 11:13:37 AM 37.6410 21.9600 126° Southeast 442 509 35,000  Level FlightAware ADS-B
Wed 11:14:27 AM 37.5620 22.0850 129° Southeast 442 509 35,000  Level FlightAware ADS-B
Wed 11:15:07 AM 37.5200 22.1550 127° Southeast 442 509 35,000  Level FlightAware ADS-B
Wed 11:15:47 AM 37.4780 22.2250 127° Southeast 442 509 35,000  Level FlightAware ADS-B
Wed 11:16:27 AM 37.4370 22.2950 126° Southeast 442 509 35,000  Level FlightAware ADS-B
Wed 11:17:07 AM 37.3950 22.3650 127° Southeast 442 509 35,000  Level FlightAware ADS-B
Wed 11:17:57 AM 37.3420 22.4520 127° Southeast 442 509 35,000  Level FlightAware ADS-B
Wed 11:18:37 AM 37.3010 22.5220 126° Southeast 442 509 35,000  Level FlightAware ADS-B
Wed 11:19:17 AM 37.2590 22.5920 127° Southeast 442 509 35,000  Level FlightAware ADS-B
Wed 11:19:57 AM 37.2170 22.6620 127° Southeast 442 509 35,000  Level FlightAware ADS-B
Wed 11:20:37 AM 37.1750 22.7310 127° Southeast 442 509 35,000  Level FlightAware ADS-B
Wed 11:21:27 AM 37.1230 22.8190 127° Southeast 442 509 35,000  Level FlightAware ADS-B
Wed 11:22:07 AM 37.0810 22.8880 127° Southeast 442 509 35,000  Level FlightAware ADS-B
Wed 11:22:47 AM 37.0390 22.9580 127° Southeast 442 509 35,000  Level FlightAware ADS-B
Wed 11:23:27 AM 36.9970 23.0270 127° Southeast 442 509 35,000 128 Level FlightAware ADS-B
Wed 11:26:00 AM 36.8889 23.3528 112° Southeast  Level Estimated
Wed 11:27:00 AM 36.8462 23.4803 113° Southeast  Level Estimated
Wed 11:28:00 AM 36.8035 23.6076 113° Southeast  Level Estimated
Wed 11:29:00 AM 36.7605 23.7349 113° Southeast  Level Estimated
Wed 11:30:00 AM 36.7175 23.8619 113° Southeast  Level Estimated
Wed 11:31:00 AM 36.6743 23.9889 113° Southeast  Level Estimated
Wed 11:32:00 AM 36.6310 24.1157 113° Southeast  Level Estimated
Wed 11:33:00 AM 36.5875 24.2423 113° Southeast  Level Estimated
Wed 11:34:00 AM 36.5439 24.3688 113° Southeast  Level Estimated
Wed 11:35:00 AM 36.5002 24.4952 113° Southeast  Level Estimated
Wed 11:36:00 AM 36.4563 24.6214 113° Southeast  Level Estimated
Wed 11:37:00 AM 36.4123 24.7475 113° Southeast  Level Estimated
Wed 11:38:00 AM 36.3682 24.8734 113° Southeast  Level Estimated
Wed 11:38:27 AM 36.3510 25.4800 113° Southeast 432 497 37,000  Level FlightAware ADS-B
Wed 11:39:02 AM 36.3250 25.5520 114° Southeast 431 496 37,000  Level FlightAware ADS-B
Wed 11:39:52 AM 36.2910 25.6480 114° Southeast 431 496 37,000  Level FlightAware ADS-B
Wed 11:40:32 AM 36.2630 25.7250 114° Southeast 431 496 37,000  Level FlightAware ADS-B
Wed 11:41:12 AM 36.2350 25.8020 114° Southeast 431 496 37,000  Level FlightAware ADS-B
Wed 11:41:52 AM 36.2080 25.8790 113° Southeast 431 496 37,000  Level FlightAware ADS-B
Wed 11:42:57 AM 36.1330 26.0740 115° Southeast 422 486 37,000  Level FlightAware ADS-B
Wed 11:43:52 AM 36.0870 26.1970 115° Southeast 424 488 37,000  Level FlightAware ADS-B
Wed 11:44:32 AM 36.0550 26.2810 115° Southeast 424 488 37,000  Level FlightAware ADS-B
Wed 11:45:12 AM 36.0250 26.3640 114° Southeast 425 489 37,000  Level FlightAware ADS-B
Wed 11:45:52 AM 35.9880 26.4610 115° Southeast 430 495 37,000  Level FlightAware ADS-B
Wed 11:46:37 AM 35.9510 26.5590 115° Southeast 433 498 37,000  Level FlightAware ADS-B
Wed 11:47:22 AM 35.9120 26.6630 115° Southeast 434 499 37,000  Level FlightAware ADS-B
Wed 11:48:02 AM 35.8780 26.7520 115° Southeast 434 499 37,000  Level FlightAware ADS-B
Wed 11:48:42 AM 35.8440 26.8430 115° Southeast 434 499 37,000  Level FlightAware ADS-B
Wed 11:49:27 AM 35.8060 26.9410 116° Southeast 434 499 37,000  Level FlightAware ADS-B
Wed 11:50:07 AM 35.7720 27.0300 115° Southeast 435 501 37,000  Level FlightAware ADS-B
Wed 11:50:42 AM 35.7430 27.1080 115° Southeast 435 501 37,000  Level FlightAware ADS-B
Wed 11:51:47 AM 35.6900 27.2470 115° Southeast 434 499 37,000  Level FlightAware ADS-B
Wed 11:52:27 AM 35.6520 27.3420 116° Southeast 432 497 37,000  Level FlightAware ADS-B
Wed 11:53:07 AM 35.6200 27.4270 115° Southeast 432 497 37,000  Level FlightAware ADS-B
Wed 11:53:52 AM 35.5840 27.5200 115° Southeast 432 497 37,000  Level FlightAware ADS-B
Wed 11:54:32 AM 35.5560 27.5960 114° Southeast 432 497 37,000  Level FlightAware ADS-B
Wed 11:55:12 AM 35.5270 27.6710 115° Southeast 432 497 37,000  Level FlightAware ADS-B
Wed 11:55:52 AM 35.4980 27.7470 115° Southeast 432 497 37,000  Level FlightAware ADS-B
Wed 11:56:32 AM 35.4430 27.8790 117° Southeast 439 505 37,000  Level FlightAware ADS-B
Wed 11:57:22 AM 35.3960 27.9990 116° Southeast 442 509 37,000  Level FlightAware ADS-B
Wed 11:58:02 AM 35.3600 28.0900 116° Southeast 445 512 37,000  Level FlightAware ADS-B
Wed 11:58:47 AM 35.3190 28.1960 115° Southeast 446 513 37,000  Level FlightAware ADS-B
Wed 11:59:27 AM 35.2830 28.2840 117° Southeast 447 514 37,000  Level FlightAware ADS-B
Wed 12:00:12 PM 35.2430 28.3850 116° Southeast 447 514 37,000  Level FlightAware ADS-B
Wed 12:00:52 PM 35.2070 28.4760 116° Southeast 445 512 37,000  Level FlightAware ADS-B
Wed 12:01:32 PM 35.1710 28.5660 116° Southeast 445 512 37,000  Level FlightAware ADS-B
Wed 12:02:27 PM 35.1250 28.6800 116° Southeast 444 511 37,000  Level FlightAware ADS-B
Wed 12:03:07 PM 35.0900 28.7670 116° Southeast 445 512 37,000  Level FlightAware ADS-B
Wed 12:03:52 PM 35.0450 28.8770 117° Southeast 446 513 37,000  Level FlightAware ADS-B
Wed 12:04:37 PM 35.0020 28.9830 116° Southeast 444 511 37,000  Level FlightAware ADS-B
Wed 12:05:17 PM 34.9650 29.0740 116° Southeast 442 509 37,000  Level FlightAware ADS-B
Wed 12:06:02 PM 34.9260 29.1710 116° Southeast 439 505 37,000  Level FlightAware ADS-B
Wed 12:06:42 PM 34.8940 29.2500 116° Southeast 439 505 37,000  Level FlightAware ADS-B
Wed 12:07:22 PM 34.8640 29.3260 116° Southeast 439 505 37,000  Level FlightAware ADS-B
Wed 12:08:07 PM 34.8140 29.4430 117° Southeast 437 503 37,000  Level FlightAware ADS-B
Wed 12:08:37 PM 34.7880 29.5070 116° Southeast 437 503 37,000  Level FlightAware ADS-B
Wed 12:09:32 PM 34.7350 29.6350 117° Southeast 441 507 37,000  Level FlightAware ADS-B
Wed 12:10:02 PM 34.7080 29.7010 116° Southeast 441 507 37,000  Level FlightAware ADS-B
Wed 12:10:52 PM 34.6610 29.8140 117° Southeast 439 505 37,000  Level FlightAware ADS-B
Wed 12:11:47 PM 34.6170 29.9220 116° Southeast 439 505 37,000  Level FlightAware ADS-B
Wed 12:12:27 PM 34.5880 29.9980 115° Southeast 439 505 37,000  Level FlightAware ADS-B
Wed 12:13:12 PM 34.5320 30.1100 121° Southeast 436 502 37,000  Level FlightAware ADS-B
Wed 12:13:57 PM 34.4860 30.2040 121° Southeast 436 502 37,000  Level FlightAware ADS-B
Wed 12:14:37 PM 34.4430 30.2940 120° Southeast 444 511 37,000  Level FlightAware ADS-B
Wed 12:15:22 PM 34.3950 30.3940 120° Southeast 447 514 37,000  Level FlightAware ADS-B
Wed 12:16:02 PM 34.3520 30.4820 121° Southeast 447 514 37,000  Level FlightAware ADS-B
Wed 12:16:42 PM 34.3100 30.5690 120° Southeast 446 513 37,000  Level FlightAware ADS-B
Wed 12:17:52 PM 34.2370 30.7190 120° Southeast 446 513 37,000  Level FlightAware ADS-B
Wed 12:18:27 PM 34.2020 30.7920 120° Southeast 447 514 37,000  Level FlightAware ADS-B
Wed 12:19:17 PM 34.1490 30.9010 120° Southeast 448 516 37,000  Level FlightAware ADS-B
Wed 12:20:27 PM 34.0740 31.0540 121° Southeast 450 518 37,000  Level FlightAware ADS-B
Wed 12:22:07 PM 33.9720 31.2620 121° Southeast 450 518 37,000  Level FlightAware ADS-B
Wed 12:22:47 PM 33.9280 31.3510 121° Southeast 449 517 37,000  Level FlightAware ADS-B
Wed 12:23:32 PM 33.8790 31.4500 121° Southeast 448 516 37,000  Level FlightAware ADS-B
Wed 12:24:12 PM 33.8360 31.5370 121° Southeast 449 517 37,000  Level FlightAware ADS-B
Wed 12:24:52 PM 33.7930 31.6240 121° Southeast 448 516 37,000  Level FlightAware ADS-B
Wed 12:25:37 PM 33.7440 31.7210 121° Southeast 450 518 37,000  Level FlightAware ADS-B
Wed 12:26:17 PM 33.7000 31.8090 121° Southeast 453 521 37,000  Level FlightAware ADS-B
Wed 12:26:57 PM 33.6560 31.8980 121° Southeast 455 524 37,000  Level FlightAware ADS-B
Wed 12:27:42 PM 33.6070 31.9950 121° Southeast 457 526 37,000  Level FlightAware ADS-B
Wed 12:28:27 PM 33.5570 32.0940 121° Southeast 454 522 37,000  Level FlightAware ADS-B
Wed 12:29:07 PM 33.5130 32.1800 122° Southeast 453 521 37,000  Level FlightAware ADS-B
Wed 12:29:47 PM 33.4690 32.2670 121° Southeast 450 518 37,000  Level FlightAware ADS-B
Wed 12:30:27 PM 33.4300 32.3450 121° Southeast 450 518 37,000  Level FlightAware ADS-B
Wed 12:31:12 PM 33.3780 32.4480 121° Southeast 451 519 37,000  Level FlightAware ADS-B
Wed 12:31:52 PM 33.3330 32.5350 122° Southeast 453 521 37,000  Level FlightAware ADS-B
Wed 12:32:37 PM 33.2850 32.6300 121° Southeast 454 522 37,000  Level FlightAware ADS-B
Wed 12:33:17 PM 33.2400 32.7180 121° Southeast 460 529 37,000  Level FlightAware ADS-B
Wed 12:34:02 PM 33.1910 32.8130 122° Southeast 458 527 37,000  Level FlightAware ADS-B
Wed 12:34:42 PM 33.1470 32.8980 122° Southeast 457 526 37,000  Level FlightAware ADS-B
Wed 12:36:07 PM 33.0520 33.0820 122° Southeast 458 527 37,000  Level FlightAware ADS-B
Wed 12:36:52 PM 33.0000 33.1820 122° Southeast 460 529 37,000  Level FlightAware ADS-B
Wed 12:37:57 PM 32.9320 33.3130 122° Southeast 461 531 37,000  Level FlightAware ADS-B
Wed 12:38:37 PM 32.8870 33.3990 122° Southeast 461 531 37,000  Level FlightAware ADS-B
Wed 12:39:22 PM 32.8340 33.5000 122° Southeast 462 532 37,000 -353 Level FlightAware ADS-B
Wed 12:40:02 PM 32.7900 33.5840 122° Southeast 457 526 36,500 -825 Descending FlightAware ADS-B
Wed 12:40:42 PM 32.7460 33.6680 122° Southeast 456 525 35,900 -918 Descending FlightAware ADS-B
Wed 12:41:27 PM 32.6950 33.7650 122° Southeast 461 531 35,200 -988 Descending FlightAware ADS-B
Wed 12:42:07 PM 32.6490 33.8510 122° Southeast 463 533 34,500 -1,059 Descending FlightAware ADS-B
Wed 12:42:52 PM 32.5960 33.9510 122° Southeast 463 533 33,700 -988 Descending FlightAware ADS-B
Wed 12:43:32 PM 32.5490 34.0400 122° Southeast 470 541 33,100 -975 Descending FlightAware ADS-B
Wed 12:44:12 PM 32.5020 34.1280 122° Southeast 465 535 32,400 -1,200 Descending FlightAware ADS-B
Wed 12:44:57 PM 32.4420 34.2180 128° Southeast 456 525 31,400 -1,624 Descending FlightAware ADS-B
Wed 12:45:37 PM 32.3880 34.2920 131° Southeast 446 513 30,100 -1,976 Descending FlightAware ADS-B
Wed 12:46:22 PM 32.3280 34.3720 132° Southeast 438 504 28,600 -1,976 Descending FlightAware ADS-B
Wed 12:47:02 PM 32.2750 34.4440 131° Southeast 429 494 27,300 -1,950 Descending FlightAware ADS-B
Wed 12:47:42 PM 32.2240 34.5130 131° Southeast 421 484 26,000 -1,906 Descending FlightAware ADS-B
Wed 12:48:27 PM 32.1670 34.5900 131° Southeast 411 473 24,600 -1,906 Descending FlightAware ADS-B
Wed 12:49:07 PM 32.1380 34.6750 112° Southeast 410 472 23,300 -1,906 Descending FlightAware ADS-B
Wed 12:49:52 PM 32.1150 34.7670 106° East 404 465 21,900 -1,800 Descending FlightAware ADS-B
Wed 12:50:27 PM 32.0980 34.8410 105° East 400 460 20,900 -750 Descending FlightAware ADS-B
Wed 12:51:12 PM 32.0780 34.9270 105° East 400 460 20,900  Level FlightAware ADS-B
Wed 12:51:52 PM 32.0620 34.9990 105° East 400 460 20,900  Level FlightAware ADS-B
Wed 12:52:32 PM 32.0460 35.0700 105° East 400 460 20,900  Level FlightAware ADS-B
Wed 12:53:22 PM 32.0250 35.1600 105° East 400 460 20,900 -3,333 Level FlightAware ADS-B
Wed 12:54:02 PM 32.0000 35.2430 110° East 336 387 15,900 -4,720 Descending FlightAware ADS-B
Wed 12:54:37 PM 31.9850 35.3060 106° East 329 379 15,000 -675 Descending FlightAware ADS-B
Wed 12:55:22 PM 31.9680 35.3750 106° East 329 379 15,000  Level FlightAware ADS-B
Wed 12:56:12 PM 31.9510 35.4480 105° East 329 379 15,000  Level FlightAware ADS-B
Wed 12:56:52 PM 31.9360 35.5070 107° East 329 379 15,000 -3,075 Level FlightAware ADS-B
Wed 12:57:32 PM 31.9090 35.5950 110° East 295 339 10,900 -3,176 Descending FlightAware ADS-B
Wed 12:58:17 PM 31.8890 35.6610 110° East 291 335 10,500 -565 Descending FlightAware ADS-B
Wed 12:58:57 PM 31.8720 35.7180 109° East 291 335 10,100 -514 Descending FlightAware ADS-B
Wed 12:59:27 PM 31.8590 35.7610 110° East 292 336 9,900 -1,527 Descending FlightAware ADS-B
Wed 12:59:52 PM 31.8470 35.8010 109° East 291 335 8,700 -2,182 Descending FlightAware ADS-B
Wed 01:00:22 PM 31.8390 35.8500 101° East 300 345 7,900 -1,500 Descending FlightAware ADS-B
Wed 01:00:52 PM 31.8390 35.8980 90° East 299 344 7,200 -1,527 Descending FlightAware ADS-B
Wed 01:01:17 PM 31.8380 35.9390 92° East 298 343 6,500 -1,527 Descending FlightAware ADS-B
Wed 01:01:47 PM 31.8370 35.9880 91° East 297 342 5,800 -1,400 Descending FlightAware ADS-B
Wed 01:02:17 PM 31.8350 36.0360 93° East 293 337 5,100 -873 Descending FlightAware ADS-B
Wed 01:02:42 PM 31.8320 36.0770 95° East 295 339 5,000 -109 Descending FlightAware ADS-B
Wed 01:03:12 PM 31.8290 36.1240 94° East 275 316 5,000 -218 Level FlightAware ADS-B
Wed 01:03:37 PM 31.8270 36.1590 94° East 256 295 4,800 -450 Descending FlightAware ADS-B
Wed 01:03:52 PM 31.8220 36.1780 107° East 250 288 4,700 -400 Descending FlightAware ADS-B
Wed 01:04:07 PM 31.8090 36.1920 138° Southeast 239 275 4,600 -200 Descending FlightAware ADS-B
Wed 01:04:22 PM 31.7940 36.1990 158° South 236 272 4,600  Level FlightAware ADS-B
Wed 01:04:42 PM 31.7750 36.2040 167° South 219 252 4,600  Level FlightAware ADS-B
Wed 01:05:02 PM 31.7570 36.1960 201° Southwest 205 236 4,600  Level FlightAware ADS-B
Wed 01:05:17 PM 31.7470 36.1830 228° Southwest 201 231 4,600 200 Level FlightAware ADS-B
Wed 01:05:32 PM 31.7420 36.1700 246° West 191 220 4,700 -267 Climbing FlightAware ADS-B
Wed 01:06:02 PM 31.7380 36.1410 261° West 159 183 4,400 -764 Descending FlightAware ADS-B
Wed 01:06:27 PM 31.7350 36.1210 260° West 148 170 4,000 -764 Descending FlightAware ADS-B
Wed 01:06:57 PM 31.7310 36.0980 258° West 145 167 3,700 -655 Descending FlightAware ADS-B
Wed 01:07:22 PM 31.7280 36.0770 260° West 147 169 3,400 -764 Descending FlightAware ADS-B
Wed 01:07:52 PM 31.7250 36.0540 261° West 148 170 3,000 -800 Descending FlightAware ADS-B
Wed 01:08:22 PM 31.7220 36.0310 261° West 146 168 2,600 -462 Descending FlightAware ADS-B
Wed 01:08:57 PM 31.7180 36.0060 259° West 145 167 2,500 -171 Descending FlightAware ADS-B
Wed 01:11:00 PM 31.7226 35.9932 293° West  Level Estimated
Wed 01:12:00 PM 31.7226 35.9932 140° Southeast  Level Estimated
Wed 01:13:00 PM 31.7226 35.9932 140° Southeast  Level Estimated
Wed 01:14:00 PM 31.7226 35.9932 140° Southeast  Level Estimated
Wed 01:15:00 PM 31.7226 35.9932 140° Southeast  Level Estimated
Wed 01:16:00 PM 31.7226 35.9932 140° Southeast  Level Estimated
Wed 01:17:00 PM 31.7226 35.9932 140° Southeast  Level Estimated
Wed 01:18:00 PM 31.7226 35.9932 140° Southeast  Level Estimated
Wed 01:19:00 PM 31.7226 35.9932 140° Southeast  Level Estimated

Login

Don't have an account? Register now (free) for customized features, flight alerts, and more!